createdAt,value
2019-02-02T00:01:33.760Z,48.08
2019-02-02T00:04:01.348Z,46.37
2019-02-02T00:06:28.683Z,46.33
2019-02-02T00:08:56.900Z,49.67
2019-02-02T00:11:24.538Z,52.23
2019-02-02T00:13:52.691Z,48.45
2019-02-02T00:16:20.098Z,49.25
2019-02-02T00:18:47.809Z,49.20
2019-02-02T00:21:15.170Z,51.50
2019-02-02T00:23:42.629Z,47.70
2019-02-02T00:26:12.331Z,47.45
2019-02-02T00:28:39.721Z,48.28
2019-02-02T00:31:07.451Z,47.90
2019-02-02T00:33:34.841Z,49.55
2019-02-02T00:36:01.963Z,51.98
2019-02-02T00:38:30.858Z,51.90
2019-02-02T00:40:59.510Z,48.52
2019-02-02T00:43:26.882Z,49.48
2019-02-02T00:45:54.453Z,49.20
2019-02-02T00:48:27.631Z,47.58
2019-02-02T00:50:55.300Z,46.25
2019-02-02T00:53:22.652Z,43.75
2019-02-02T00:55:55.649Z,51.60
2019-02-02T00:58:22.722Z,51.42
2019-02-02T01:00:50.099Z,48.70
2019-02-02T01:03:17.166Z,50.10
2019-02-02T01:05:45.241Z,48.73
2019-02-02T01:08:12.459Z,46.77
2019-02-02T01:10:41.382Z,45.60
2019-02-02T01:13:09.500Z,46.80
2019-02-02T01:15:37.264Z,49.42
2019-02-02T01:18:07.050Z,50.15
2019-02-02T01:20:35.151Z,49.70
2019-02-02T01:23:03.602Z,48.48
2019-02-02T01:25:30.668Z,47.15
2019-02-02T01:28:04.780Z,46.90
2019-02-02T01:30:27.199Z,49.50
2019-02-02T01:32:56.111Z,47.10
2019-02-02T01:35:23.190Z,47.48
2019-02-02T01:37:51.587Z,47.15
2019-02-02T01:40:19.259Z,48.38
2019-02-02T01:42:46.839Z,46.05
2019-02-02T01:45:20.093Z,47.73
2019-02-02T01:47:47.614Z,48.65
2019-02-02T01:50:16.589Z,48.50
2019-02-02T01:52:44.342Z,46.18
2019-02-02T01:55:13.050Z,50.40
2019-02-02T01:57:40.711Z,49.50
2019-02-02T02:00:12.399Z,47.48
2019-02-02T02:02:41.857Z,47.53
2019-02-02T02:05:09.258Z,51.23
2019-02-02T02:07:36.668Z,46.10
2019-02-02T02:10:05.663Z,46.73
2019-02-02T02:12:33.154Z,49.93
2019-02-02T02:15:01.409Z,47.30
2019-02-02T02:17:29.255Z,50.63
2019-02-02T02:19:58.150Z,49.38
2019-02-02T02:22:26.627Z,45.55
2019-02-02T02:24:54.406Z,51.45
2019-02-02T02:27:21.498Z,48.92
2019-02-02T02:29:49.003Z,53.20
2019-02-02T02:32:17.375Z,43.75
2019-02-02T02:34:45.958Z,48.25
2019-02-02T02:37:13.003Z,48.68
2019-02-02T02:39:41.879Z,50.65
2019-02-02T02:42:09.039Z,49.33
2019-02-02T02:44:36.407Z,46.68
2019-02-02T02:47:03.459Z,50.38
2019-02-02T02:49:31.007Z,49.27
2019-02-02T02:51:58.670Z,50.38
2019-02-02T02:54:25.754Z,50.35
2019-02-02T02:56:53.966Z,48.60
2019-02-02T02:59:21.014Z,49.08
2019-02-02T03:01:48.071Z,47.78
2019-02-02T03:04:16.203Z,48.75
2019-02-02T03:06:44.578Z,50.25
2019-02-02T03:09:11.843Z,46.75
2019-02-02T03:11:39.306Z,47.23
2019-02-02T03:14:06.355Z,49.03
2019-02-02T03:16:34.178Z,51.30
2019-02-02T03:19:02.707Z,50.35
2019-02-02T03:21:30.124Z,48.25
2019-02-02T03:23:57.224Z,48.60
2019-02-02T03:26:24.343Z,47.30
2019-02-02T03:28:53.863Z,47.83
2019-02-02T03:31:22.245Z,47.67
2019-02-02T03:33:49.575Z,48.73
2019-02-02T03:36:16.923Z,48.50
2019-02-02T03:38:44.081Z,49.20
2019-02-02T03:41:11.161Z,48.92
2019-02-02T03:43:39.429Z,47.20
2019-02-02T03:46:06.481Z,50.55
2019-02-02T03:48:33.864Z,49.53
2019-02-02T03:51:01.010Z,51.45
2019-02-02T03:53:28.364Z,48.60
2019-02-02T03:55:56.249Z,47.88
2019-02-02T03:58:23.695Z,51.25
2019-02-02T04:00:51.346Z,49.95
2019-02-02T04:03:18.804Z,48.38
2019-02-02T04:05:50.092Z,48.48
2019-02-02T04:08:18.047Z,52.70
2019-02-02T04:10:45.783Z,47.25
2019-02-02T04:13:13.239Z,47.90
2019-02-02T04:15:40.410Z,50.10
2019-02-02T04:18:07.487Z,51.18
2019-02-02T04:20:34.708Z,52.45
2019-02-02T04:23:01.855Z,52.00
2019-02-02T04:25:29.036Z,50.80
2019-02-02T04:27:56.471Z,51.58
2019-02-02T04:30:25.104Z,51.55
2019-02-02T04:32:52.189Z,52.85
2019-02-02T04:35:19.242Z,54.25
2019-02-02T04:37:47.310Z,53.33
2019-02-02T04:40:14.494Z,51.58
2019-02-02T04:42:41.554Z,52.20
2019-02-02T04:45:09.752Z,50.85
2019-02-02T04:47:37.046Z,52.05
2019-02-02T04:50:06.011Z,50.45
2019-02-02T04:52:33.878Z,50.83
2019-02-02T04:55:01.287Z,53.08
2019-02-02T04:57:28.693Z,50.60
2019-02-02T04:59:55.758Z,50.12
2019-02-02T05:02:24.214Z,51.30
2019-02-02T05:04:51.270Z,47.23
2019-02-02T05:07:18.318Z,54.08
2019-02-02T05:09:45.379Z,51.50
2019-02-02T05:12:12.759Z,51.53
2019-02-02T05:14:39.822Z,50.35
2019-02-02T05:17:07.233Z,52.70
2019-02-02T05:19:35.997Z,48.30
2019-02-02T05:22:04.780Z,52.70
2019-02-02T05:24:33.001Z,52.62
2019-02-02T05:27:01.228Z,51.75
2019-02-02T05:29:28.282Z,49.83
2019-02-02T05:31:55.332Z,50.28
2019-02-02T05:34:22.428Z,54.93
2019-02-02T05:36:49.569Z,53.73
2019-02-02T05:39:16.635Z,50.28
2019-02-02T05:41:43.679Z,54.13
2019-02-02T05:44:12.974Z,54.45
2019-02-02T05:46:40.450Z,54.40
2019-02-02T05:49:07.518Z,53.55
2019-02-02T05:51:35.870Z,54.45
2019-02-02T05:54:03.050Z,52.30
2019-02-02T05:56:30.122Z,55.95
2019-02-02T05:58:57.519Z,54.33
2019-02-02T06:01:26.078Z,53.65
2019-02-02T06:03:55.347Z,55.67
2019-02-02T06:06:24.863Z,57.33
2019-02-02T06:08:52.523Z,57.83
2019-02-02T06:11:19.866Z,53.40
2019-02-02T06:13:47.242Z,56.92
2019-02-02T06:16:16.421Z,55.23
2019-02-02T06:18:44.509Z,56.25
2019-02-02T06:21:12.254Z,55.83
2019-02-02T06:23:39.613Z,57.53
2019-02-02T06:26:06.705Z,52.60
2019-02-02T06:28:33.763Z,56.35
2019-02-02T06:31:00.878Z,60.70
2019-02-02T06:33:27.954Z,54.95
2019-02-02T06:35:55.405Z,54.18
2019-02-02T06:38:22.451Z,56.70
2019-02-02T06:40:49.657Z,57.33
2019-02-02T06:43:16.741Z,54.88
2019-02-02T06:45:43.805Z,54.20
2019-02-02T06:48:10.933Z,55.75
2019-02-02T06:50:39.778Z,54.80
2019-02-02T06:53:06.995Z,54.20
2019-02-02T06:55:34.042Z,54.40
2019-02-02T06:58:01.264Z,51.98
2019-02-02T07:00:28.386Z,56.15
2019-02-02T07:02:57.190Z,52.58
2019-02-02T07:05:24.264Z,54.10
2019-02-02T07:07:51.731Z,56.88
2019-02-02T07:10:23.984Z,54.70
2019-02-02T07:12:51.161Z,54.42
2019-02-02T07:15:20.545Z,55.75
2019-02-02T07:17:48.266Z,54.95
2019-02-02T07:20:15.925Z,54.42
2019-02-02T07:22:43.126Z,56.28
2019-02-02T07:25:10.433Z,56.85
2019-02-02T07:27:37.785Z,52.93
2019-02-02T07:30:08.092Z,60.08
2019-02-02T07:32:35.804Z,61.50
2019-02-02T07:35:03.839Z,62.20
2019-02-02T07:37:31.355Z,62.65
2019-02-02T07:40:00.277Z,59.80
2019-02-02T07:42:27.875Z,62.55
2019-02-02T07:44:56.073Z,65.17
2019-02-02T07:47:24.128Z,61.75
2019-02-02T07:49:51.183Z,62.13
2019-02-02T07:52:18.751Z,64.70
2019-02-02T07:54:45.948Z,61.90
2019-02-02T07:57:13.136Z,63.95
2019-02-02T07:59:40.212Z,65.85
2019-02-02T08:02:09.063Z,63.92
2019-02-02T08:04:37.234Z,61.83
2019-02-02T08:07:04.426Z,67.17
2019-02-02T08:09:32.586Z,65.17
2019-02-02T08:11:59.646Z,68.22
2019-02-02T08:14:26.686Z,67.78
2019-02-02T08:16:53.729Z,67.82
2019-02-02T08:19:20.978Z,66.87
2019-02-02T08:21:48.030Z,68.57
2019-02-02T08:24:16.017Z,67.70
2019-02-02T08:26:43.406Z,64.70
2019-02-02T08:29:10.779Z,64.30
2019-02-02T08:31:38.726Z,65.85
2019-02-02T08:34:05.934Z,65.30
2019-02-02T08:36:33.134Z,68.70
2019-02-02T08:39:01.568Z,66.02
2019-02-02T08:41:31.678Z,63.50
2019-02-02T08:43:58.730Z,63.83
2019-02-02T08:46:25.792Z,64.42
2019-02-02T08:48:53.282Z,63.52
2019-02-02T08:51:20.666Z,65.25
2019-02-02T08:53:48.042Z,63.05
2019-02-02T08:56:15.130Z,64.80
2019-02-02T08:58:44.011Z,66.28
2019-02-02T09:01:11.066Z,63.95
2019-02-02T09:03:38.308Z,67.08
2019-02-02T09:06:05.354Z,67.95
2019-02-02T09:08:32.494Z,67.85
2019-02-02T09:10:59.879Z,60.75
2019-02-02T09:13:27.546Z,59.85
2019-02-02T09:15:54.902Z,64.72
2019-02-02T09:18:23.194Z,63.42
2019-02-02T09:20:51.556Z,63.35
2019-02-02T09:23:19.337Z,63.17
2019-02-02T09:25:47.757Z,64.07
2019-02-02T09:28:16.205Z,64.65
2019-02-02T09:30:43.834Z,64.55
2019-02-02T09:33:11.289Z,64.75
2019-02-02T09:35:38.394Z,62.98
2019-02-02T09:38:05.449Z,63.45
2019-02-02T09:40:33.048Z,60.08
2019-02-02T09:43:00.713Z,61.90
2019-02-02T09:45:28.086Z,63.50
2019-02-02T09:47:55.233Z,65.20
2019-02-02T09:50:22.969Z,62.30
2019-02-02T09:52:50.050Z,64.58
2019-02-02T09:55:18.629Z,63.70
2019-02-02T09:57:47.825Z,62.55
2019-02-02T10:00:18.002Z,59.70
2019-02-02T10:02:45.966Z,58.00
2019-02-02T10:05:13.286Z,59.30
2019-02-02T10:07:42.174Z,65.47
2019-02-02T10:10:15.921Z,59.85
2019-02-02T10:12:44.210Z,58.42
2019-02-02T10:15:11.455Z,58.17
2019-02-02T10:17:40.330Z,60.08
2019-02-02T10:20:09.641Z,60.73
2019-02-02T10:22:37.118Z,57.48
2019-02-02T10:25:09.153Z,57.50
2019-02-02T10:27:36.612Z,58.93
2019-02-02T10:30:08.069Z,54.97
2019-02-02T10:32:35.819Z,54.90
2019-02-02T10:35:05.098Z,57.73
2019-02-02T10:37:32.234Z,57.37
2019-02-02T10:40:00.709Z,54.37
2019-02-02T10:42:27.750Z,55.30
2019-02-02T10:44:55.234Z,53.97
2019-02-02T10:47:24.100Z,54.30
2019-02-02T10:49:52.268Z,56.17
2019-02-02T10:52:19.604Z,51.93
2019-02-02T10:54:46.649Z,52.93
2019-02-02T10:57:13.701Z,54.30
2019-02-02T10:59:41.620Z,54.50
2019-02-02T11:02:09.330Z,52.00
2019-02-02T11:04:36.873Z,55.08
2019-02-02T11:07:05.117Z,53.00
2019-02-02T11:09:33.954Z,51.67
2019-02-02T11:12:01.302Z,51.10
2019-02-02T11:14:28.759Z,52.20
2019-02-02T11:16:56.436Z,55.95
2019-02-02T11:19:24.539Z,54.05
2019-02-02T11:21:52.348Z,55.17
2019-02-02T11:24:19.747Z,59.33
2019-02-02T11:26:47.526Z,57.15
2019-02-02T11:29:15.406Z,57.23
2019-02-02T11:31:42.905Z,53.48
2019-02-02T11:34:10.589Z,53.13
2019-02-02T11:36:37.896Z,58.40
2019-02-02T11:39:05.673Z,50.10
2019-02-02T11:41:34.887Z,56.15
2019-02-02T11:44:02.242Z,51.40
2019-02-02T11:46:29.903Z,51.58
2019-02-02T11:48:57.359Z,53.37
2019-02-02T11:51:24.441Z,53.23
2019-02-02T11:53:51.862Z,53.20
2019-02-02T11:56:19.558Z,56.42
2019-02-02T11:58:47.291Z,55.63
2019-02-02T12:01:16.835Z,52.83
2019-02-02T12:03:44.187Z,55.73
2019-02-02T12:06:11.446Z,52.67
2019-02-02T12:08:39.266Z,57.05
2019-02-02T12:11:06.346Z,54.18
2019-02-02T12:13:34.798Z,51.58
2019-02-02T12:16:01.915Z,52.20
2019-02-02T12:18:30.735Z,54.48
2019-02-02T12:20:57.793Z,50.28
2019-02-02T12:23:25.545Z,49.90
2019-02-02T12:25:53.514Z,45.65
2019-02-02T12:28:20.870Z,51.30
2019-02-02T12:30:48.328Z,48.08
2019-02-02T12:33:15.987Z,44.42
2019-02-02T12:35:44.263Z,46.83
2019-02-02T12:38:12.025Z,47.78
2019-02-02T12:40:39.074Z,46.00
2019-02-02T12:43:07.656Z,48.98
2019-02-02T12:45:46.582Z,45.85
2019-02-02T12:48:13.633Z,42.20
2019-02-02T12:50:40.974Z,42.67
2019-02-02T12:53:09.167Z,44.73
2019-02-02T12:55:39.921Z,44.65
2019-02-02T12:58:07.764Z,46.25
2019-02-02T13:00:34.926Z,45.75
2019-02-02T13:03:03.986Z,49.83
2019-02-02T13:05:31.063Z,45.55
2019-02-02T13:08:00.233Z,46.88
2019-02-02T13:10:27.309Z,48.23
2019-02-02T13:12:56.178Z,47.75
2019-02-02T13:15:23.370Z,47.95
2019-02-02T13:17:52.993Z,43.83
2019-02-02T13:20:20.444Z,45.05
2019-02-02T13:22:47.745Z,45.00
2019-02-02T13:25:16.640Z,41.92
2019-02-02T13:27:44.043Z,44.10
2019-02-02T13:30:18.159Z,44.90
2019-02-02T13:32:49.749Z,43.38
2019-02-02T13:35:16.395Z,46.28
2019-02-02T13:37:43.443Z,47.27
2019-02-02T13:40:13.769Z,45.45
2019-02-02T13:42:40.810Z,43.45
2019-02-02T13:45:09.916Z,44.95
2019-02-02T13:47:37.680Z,44.18
2019-02-02T13:50:07.558Z,47.15
2019-02-02T13:52:35.052Z,45.43
2019-02-02T13:55:02.138Z,46.37
2019-02-02T13:57:29.971Z,46.85
2019-02-02T13:59:57.729Z,43.98
2019-02-02T14:02:26.929Z,46.37
2019-02-02T14:04:55.714Z,46.28
2019-02-02T14:07:23.374Z,48.02
2019-02-02T14:09:50.762Z,45.60
2019-02-02T14:12:18.129Z,47.80
2019-02-02T14:14:45.512Z,48.55
2019-02-02T14:17:14.635Z,46.20
2019-02-02T14:19:42.066Z,46.33
2019-02-02T14:22:09.755Z,43.52
2019-02-02T14:24:37.106Z,44.83
2019-02-02T14:27:04.462Z,45.65
2019-02-02T14:29:34.073Z,46.63
2019-02-02T14:32:01.531Z,51.83
2019-02-02T14:34:39.558Z,47.17
2019-02-02T14:36:58.999Z,47.55
2019-02-02T14:39:26.055Z,46.60
2019-02-02T14:41:54.219Z,46.92
2019-02-02T14:44:21.786Z,47.38
2019-02-02T14:46:50.057Z,44.95
2019-02-02T14:49:17.418Z,42.53
2019-02-02T14:51:44.770Z,45.83
2019-02-02T14:54:12.527Z,44.03
2019-02-02T14:56:47.654Z,44.30
2019-02-02T14:59:10.243Z,47.48
2019-02-02T15:01:37.735Z,45.08
2019-02-02T15:04:06.055Z,43.98
2019-02-02T15:06:33.430Z,44.42
2019-02-02T15:09:00.475Z,44.48
2019-02-02T15:11:29.439Z,51.35
2019-02-02T15:13:56.801Z,45.00
2019-02-02T15:16:24.145Z,48.33
2019-02-02T15:18:51.805Z,46.05
2019-02-02T15:21:19.112Z,45.88
2019-02-02T15:23:46.327Z,45.28
2019-02-02T15:26:13.714Z,42.80
2019-02-02T15:28:40.745Z,44.13
2019-02-02T15:31:07.821Z,41.50
2019-02-02T15:33:37.900Z,44.27
2019-02-02T15:36:04.244Z,42.40
2019-02-02T15:38:31.690Z,39.75
2019-02-02T15:40:59.534Z,40.83
2019-02-02T15:43:27.601Z,40.85
2019-02-02T15:45:54.969Z,43.42
2019-02-02T15:48:26.967Z,46.05
2019-02-02T15:50:54.790Z,43.23
2019-02-02T15:53:23.373Z,42.90
2019-02-02T15:55:51.148Z,43.28
2019-02-02T15:58:19.846Z,41.20
2019-02-02T16:00:47.173Z,40.90
2019-02-02T16:03:14.548Z,41.33
2019-02-02T16:05:41.887Z,40.50
2019-02-02T16:08:11.487Z,44.10
2019-02-02T16:10:41.717Z,42.55
2019-02-02T16:13:09.270Z,43.42
2019-02-02T16:15:36.706Z,42.67
2019-02-02T16:18:04.904Z,47.13
2019-02-02T16:20:34.404Z,44.90
2019-02-02T16:23:02.788Z,45.67
2019-02-02T16:25:30.188Z,44.15
2019-02-02T16:27:58.560Z,44.60
2019-02-02T16:30:26.466Z,46.63
2019-02-02T16:32:53.840Z,48.55
2019-02-02T16:35:21.820Z,49.35
2019-02-02T16:37:49.472Z,43.20
2019-02-02T16:40:21.372Z,46.10
2019-02-02T16:42:48.700Z,45.48
2019-02-02T16:45:17.455Z,49.67
2019-02-02T16:47:44.521Z,45.30
2019-02-02T16:50:14.022Z,48.95
2019-02-02T16:52:41.793Z,47.15
2019-02-02T16:55:10.415Z,44.55
2019-02-02T16:57:38.550Z,44.75
2019-02-02T17:00:08.665Z,45.03
2019-02-02T17:02:37.088Z,42.55
2019-02-02T17:05:05.731Z,48.17
2019-02-02T17:07:34.418Z,44.23
2019-02-02T17:10:01.814Z,46.08
2019-02-02T17:12:31.678Z,45.90
2019-02-02T17:14:59.090Z,44.70
2019-02-02T17:17:26.742Z,47.50
2019-02-02T17:19:55.898Z,40.08
2019-02-02T17:22:23.255Z,44.35
2019-02-02T17:24:51.230Z,46.02
2019-02-02T17:27:18.581Z,44.23
2019-02-02T17:29:45.645Z,45.45
2019-02-02T17:32:13.592Z,43.17
2019-02-02T17:34:44.158Z,42.90
2019-02-02T17:37:11.573Z,45.40
2019-02-02T17:39:39.450Z,42.43
2019-02-02T17:42:06.802Z,38.83
2019-02-02T17:44:34.252Z,40.55
2019-02-02T17:47:01.917Z,39.67
2019-02-02T17:49:29.901Z,42.03
2019-02-02T17:51:58.465Z,37.65
2019-02-02T17:54:26.539Z,36.40
2019-02-02T17:56:55.227Z,39.53
2019-02-02T17:59:23.340Z,37.30
2019-02-02T18:01:51.180Z,38.10
2019-02-02T18:04:19.612Z,35.92
2019-02-02T18:06:47.101Z,37.70
2019-02-02T18:09:14.211Z,35.68
2019-02-02T18:11:44.811Z,38.20
2019-02-02T18:14:12.335Z,37.05
2019-02-02T18:16:39.387Z,37.03
2019-02-02T18:19:08.027Z,35.28
2019-02-02T18:21:35.090Z,34.70
2019-02-02T18:24:02.163Z,34.43
2019-02-02T18:26:29.221Z,36.90
2019-02-02T18:28:57.394Z,33.28
2019-02-02T18:31:24.659Z,34.70
2019-02-02T18:33:52.111Z,34.38
2019-02-02T18:36:19.280Z,35.17
2019-02-02T18:38:46.717Z,34.50
2019-02-02T18:41:13.798Z,36.45
2019-02-02T18:43:42.323Z,35.60
2019-02-02T18:46:09.373Z,34.48
2019-02-02T18:48:37.980Z,34.43
2019-02-02T18:51:07.077Z,31.30
2019-02-02T18:53:34.479Z,33.63
2019-02-02T18:56:08.219Z,34.35
2019-02-02T18:58:36.395Z,33.30
2019-02-02T19:01:04.255Z,32.08
2019-02-02T19:03:34.071Z,32.50
2019-02-02T19:06:01.523Z,32.80
2019-02-02T19:08:29.391Z,31.42
2019-02-02T19:10:56.457Z,30.43
2019-02-02T19:13:23.906Z,32.17
2019-02-02T19:15:52.755Z,32.90
2019-02-02T19:18:19.822Z,33.15
2019-02-02T19:20:47.839Z,32.73
2019-02-02T19:23:24.642Z,30.77
2019-02-02T19:25:44.423Z,29.77
2019-02-02T19:28:11.490Z,31.80
2019-02-02T19:30:38.570Z,30.00
2019-02-02T19:33:05.620Z,30.70
2019-02-02T19:35:32.695Z,32.03
2019-02-02T19:38:00.100Z,31.17
2019-02-02T19:40:27.512Z,31.52
2019-02-02T19:42:54.938Z,33.02
2019-02-02T19:45:23.667Z,32.78
2019-02-02T19:47:51.568Z,34.90
2019-02-02T19:50:22.514Z,32.23
2019-02-02T19:52:51.494Z,38.58
2019-02-02T19:55:20.693Z,34.73
2019-02-02T19:57:47.819Z,38.02
2019-02-02T20:00:21.216Z,35.45
2019-02-02T20:02:48.364Z,39.80
2019-02-02T20:05:27.515Z,35.03
2019-02-02T20:07:44.428Z,36.50
2019-02-02T20:10:13.564Z,37.10
2019-02-02T20:12:43.964Z,34.88
2019-02-02T20:15:15.073Z,35.88
2019-02-02T20:17:45.442Z,34.03
2019-02-02T20:20:17.048Z,34.60
2019-02-02T20:22:44.274Z,35.03
2019-02-02T20:25:11.632Z,35.98
2019-02-02T20:27:38.768Z,35.33
2019-02-02T20:30:08.005Z,35.92
2019-02-02T20:32:36.056Z,34.60
2019-02-02T20:35:04.356Z,31.65
2019-02-02T20:37:31.428Z,32.23
2019-02-02T20:39:58.464Z,30.90
2019-02-02T20:42:25.482Z,29.48
2019-02-02T20:44:53.605Z,29.95
2019-02-02T20:47:20.628Z,29.32
2019-02-02T20:49:47.697Z,30.65
2019-02-02T20:52:15.217Z,30.88
2019-02-02T20:54:43.309Z,30.77
2019-02-02T20:57:10.391Z,29.80
2019-02-02T20:59:37.834Z,30.97
2019-02-02T21:02:05.903Z,32.10
2019-02-02T21:04:33.703Z,31.60
2019-02-02T21:07:01.342Z,33.53
2019-02-02T21:09:28.427Z,32.28
2019-02-02T21:11:57.280Z,31.52
2019-02-02T21:14:25.359Z,33.15
2019-02-02T21:16:53.754Z,32.90
2019-02-02T21:19:22.896Z,32.50
2019-02-02T21:21:50.008Z,34.73
2019-02-02T21:24:17.812Z,34.75
2019-02-02T21:26:46.494Z,35.60
2019-02-02T21:29:14.157Z,39.40
2019-02-02T21:31:41.319Z,34.98
2019-02-02T21:34:08.770Z,35.43
2019-02-02T21:36:35.845Z,34.33
2019-02-02T21:39:06.658Z,37.48
2019-02-02T21:41:36.003Z,37.30
2019-02-02T21:44:03.811Z,37.20
2019-02-02T21:46:31.391Z,35.55
2019-02-02T21:48:58.743Z,35.75
2019-02-02T21:51:27.089Z,36.45
2019-02-02T21:53:55.590Z,36.23
2019-02-02T21:56:23.391Z,34.90
2019-02-02T21:58:51.420Z,37.67
2019-02-02T22:01:24.242Z,32.98
2019-02-02T22:03:47.872Z,34.10
2019-02-02T22:06:15.916Z,31.68
2019-02-02T22:08:43.113Z,35.10
2019-02-02T22:11:10.507Z,33.18
2019-02-02T22:13:38.212Z,34.33
2019-02-02T22:16:06.284Z,33.73
2019-02-02T22:18:34.148Z,31.25
2019-02-02T22:21:01.807Z,35.88
2019-02-02T22:23:28.968Z,34.15
2019-02-02T22:25:57.028Z,29.70
2019-02-02T22:28:28.579Z,32.95
2019-02-02T22:30:56.244Z,32.88
2019-02-02T22:33:24.927Z,31.15
2019-02-02T22:35:52.914Z,31.97
2019-02-02T22:38:20.666Z,29.95
2019-02-02T22:40:47.828Z,32.53
2019-02-02T22:43:14.880Z,30.85
2019-02-02T22:45:41.948Z,30.70
2019-02-02T22:48:09.707Z,31.35
2019-02-02T22:50:37.119Z,29.82
2019-02-02T22:53:04.800Z,32.08
2019-02-02T22:55:31.864Z,29.30
2019-02-02T22:57:59.688Z,32.53
2019-02-02T23:00:54.711Z,29.27
2019-02-02T23:04:03.785Z,28.87
2019-02-02T23:07:07.224Z,28.85
2019-02-02T23:10:23.540Z,30.55
2019-02-02T23:13:30.930Z,31.25
2019-02-02T23:16:29.112Z,28.42
2019-02-02T23:18:57.577Z,31.80
2019-02-02T23:21:25.818Z,30.17
2019-02-02T23:23:52.847Z,29.18
2019-02-02T23:26:20.475Z,31.85
2019-02-02T23:28:47.566Z,31.33
2019-02-02T23:31:16.719Z,34.13
2019-02-02T23:33:44.384Z,34.10
2019-02-02T23:36:11.750Z,32.73
2019-02-02T23:38:39.498Z,30.92
2019-02-02T23:41:06.850Z,33.25
2019-02-02T23:43:34.510Z,35.55
2019-02-02T23:46:02.383Z,35.68
2019-02-02T23:48:30.272Z,35.17
2019-02-02T23:50:57.675Z,32.10
2019-02-02T23:53:24.731Z,35.45
2019-02-02T23:55:51.821Z,34.65
2019-02-02T23:58:20.383Z,36.17
